Time;durP1;ratioP1;P1;durP2;ratioP2;P2;SDS_P1;SDS_P2;PMS_P1;PMS_P2;Temp;Humidity;BMP_temperature;BMP_pressure;BME280_temperature;BME280_humidity;BME280_pressure;Samples;Min_cycle;Max_cycle;Signal;HPM_P1;HPM_P2
2022/08/30 00:02:59;;;;;;;7.20;4.68;;;16.30;99.90;;;;;;4990878;28;20047;-85
2022/08/30 00:05:25;;;;;;;8.43;4.75;;;16.30;99.90;;;;;;5006629;28;20133;-84
2022/08/30 00:07:51;;;;;;;8.82;4.97;;;16.30;99.90;;;;;;5005615;28;20081;-85
2022/08/30 00:10:16;;;;;;;9.48;5.05;;;16.30;99.90;;;;;;5006935;28;20077;-85
2022/08/30 00:12:42;;;;;;;8.48;5.43;;;16.30;99.90;;;;;;5006168;28;20097;-85
2022/08/30 00:15:09;;;;;;;8.48;5.07;;;16.30;99.90;;;;;;5005784;28;20045;-84
2022/08/30 00:17:35;;;;;;;7.78;4.85;;;16.30;99.90;;;;;;4991419;28;20046;-85
2022/08/30 00:20:03;;;;;;;9.23;5.28;;;16.30;99.90;;;;;;5005563;28;20042;-85
2022/08/30 00:22:28;;;;;;;8.55;5.28;;;16.30;99.90;;;;;;4991287;28;20050;-85
2022/08/30 00:24:54;;;;;;;10.10;5.57;;;16.30;99.90;;;;;;5005133;28;20483;-85
2022/08/30 00:27:19;;;;;;;8.20;4.72;;;16.30;99.90;;;;;;5005720;28;20077;-85
2022/08/30 00:29:45;;;;;;;8.45;4.90;;;16.30;99.90;;;;;;5005655;28;20411;-84
2022/08/30 00:32:11;;;;;;;8.73;5.45;;;16.30;99.90;;;;;;5005782;28;20045;-84
2022/08/30 00:34:36;;;;;;;9.70;5.00;;;16.30;99.90;;;;;;4991250;28;20700;-85
2022/08/30 00:37:02;;;;;;;8.38;5.50;;;16.30;99.90;;;;;;4990083;28;20090;-85
2022/08/30 00:39:27;;;;;;;8.10;4.80;;;16.30;99.90;;;;;;5006162;28;20112;-85
2022/08/30 00:41:53;;;;;;;8.57;5.03;;;16.30;99.90;;;;;;4989735;28;20046;-86
2022/08/30 00:44:19;;;;;;;8.50;5.32;;;16.20;99.90;;;;;;4973354;28;20046;-85
2022/08/30 00:46:44;;;;;;;8.07;4.93;;;16.30;99.90;;;;;;5005350;28;20077;-86
2022/08/30 00:49:11;;;;;;;8.88;5.05;;;16.20;99.90;;;;;;5005924;28;20050;-85
2022/08/30 00:51:39;;;;;;;10.20;5.28;;;16.20;99.90;;;;;;4990886;28;20066;-85
2022/08/30 00:54:05;;;;;;;8.82;5.03;;;16.20;99.90;;;;;;4988343;28;20104;-85
2022/08/30 00:56:33;;;;;;;8.20;5.10;;;16.20;99.90;;;;;;4990286;28;20108;-85
2022/08/30 00:59:00;;;;;;;10.02;5.43;;;16.20;99.90;;;;;;4989665;28;20062;-85
2022/08/30 01:01:27;;;;;;;9.45;5.30;;;16.20;99.90;;;;;;4989299;28;20093;-84
2022/08/30 01:03:53;;;;;;;9.50;5.40;;;16.20;99.90;;;;;;5004614;28;20125;-85
2022/08/30 01:06:18;;;;;;;9.27;5.18;;;16.20;99.90;;;;;;4973774;28;20100;-84
2022/08/30 01:08:45;;;;;;;8.25;5.57;;;16.10;99.90;;;;;;4989326;28;20062;-85
2022/08/30 01:11:15;;;;;;;9.85;5.60;;;16.10;99.90;;;;;;4972656;28;20042;-85
2022/08/30 01:13:42;;;;;;;9.45;5.53;;;16.10;99.90;;;;;;5006303;28;20415;-84
2022/08/30 01:16:08;;;;;;;7.47;4.78;;;16.00;99.90;;;;;;4972493;28;20046;-85
2022/08/30 01:18:34;;;;;;;8.88;5.38;;;16.00;99.90;;;;;;5005912;28;20038;-83
2022/08/30 01:21:06;;;;;;;10.35;5.32;;;16.00;99.90;;;;;;4990169;28;20057;-85
2022/08/30 01:23:35;;;;;;;8.50;5.35;;;16.00;99.90;;;;;;5005325;28;20054;-84
2022/08/30 01:26:02;;;;;;;8.05;5.13;;;15.90;99.90;;;;;;5003831;28;20049;-83
2022/08/30 01:28:28;;;;;;;10.65;5.18;;;16.00;99.90;;;;;;5005658;28;20046;-84
2022/08/30 01:30:54;;;;;;;9.40;5.30;;;15.90;99.90;;;;;;5004588;28;20133;-84
2022/08/30 01:33:21;;;;;;;8.05;5.70;;;15.90;99.90;;;;;;4990127;28;20173;-84
2022/08/30 01:35:56;;;;;;;11.77;5.80;;;15.90;99.90;;;;;;5004609;28;20046;-85
2022/08/30 01:38:29;;;;;;;9.52;5.60;;;15.90;99.90;;;;;;5005198;28;20094;-86
2022/08/30 01:41:06;;;;;;;12.05;6.00;;;15.80;99.90;;;;;;4988782;28;20403;-84
2022/08/30 01:43:32;;;;;;;9.55;5.63;;;15.80;99.90;;;;;;5005289;28;20050;-85
2022/08/30 01:45:59;;;;;;;10.38;6.22;;;15.80;99.90;;;;;;4987924;28;20499;-85
2022/08/30 01:48:24;;;;;;;12.50;6.63;;;15.80;99.90;;;;;;5004997;28;20053;-86
2022/08/30 01:50:51;;;;;;;9.63;6.07;;;15.70;99.90;;;;;;5004676;28;20046;-86
2022/08/30 01:53:16;;;;;;;9.23;6.15;;;15.70;99.90;;;;;;5005092;28;20096;-85
2022/08/30 01:55:42;;;;;;;8.82;5.97;;;15.70;99.90;;;;;;4972022;28;20438;-85
2022/08/30 01:58:08;;;;;;;9.13;5.97;;;15.80;99.90;;;;;;5004207;28;20407;-85
2022/08/30 02:00:34;;;;;;;9.68;5.82;;;15.70;99.90;;;;;;5004896;28;20058;-86
2022/08/30 02:02:59;;;;;;;10.80;6.60;;;15.80;99.90;;;;;;5004032;28;20053;-85
2022/08/30 02:05:25;;;;;;;9.05;5.65;;;15.60;99.90;;;;;;5005072;28;20510;-84
2022/08/30 02:07:50;;;;;;;10.35;6.05;;;15.60;99.90;;;;;;4989159;28;20069;-84
2022/08/30 02:10:16;;;;;;;10.70;6.43;;;15.60;99.90;;;;;;4989296;28;20072;-86
2022/08/30 02:12:42;;;;;;;10.85;6.70;;;15.60;99.90;;;;;;4989911;28;20042;-84
2022/08/30 02:15:08;;;;;;;9.50;6.43;;;15.60;99.90;;;;;;4971811;28;20049;-85
2022/08/30 02:17:34;;;;;;;11.55;6.85;;;15.60;99.90;;;;;;5004597;28;20057;-85
2022/08/30 02:20:00;;;;;;;8.73;6.18;;;15.60;99.90;;;;;;5004056;28;20042;-85
2022/08/30 02:22:26;;;;;;;9.35;6.55;;;15.50;99.90;;;;;;4990400;28;20046;-85
2022/08/30 02:24:51;;;;;;;8.73;6.40;;;15.50;99.90;;;;;;4992296;28;20050;-85
2022/08/30 02:27:17;;;;;;;9.13;6.50;;;15.50;99.90;;;;;;4993705;28;20068;-84
2022/08/30 02:29:42;;;;;;;10.38;6.72;;;15.40;99.90;;;;;;4991979;28;20034;-84
2022/08/30 02:32:08;;;;;;;9.38;6.38;;;15.40;99.90;;;;;;4992981;28;20118;-85
2022/08/30 02:34:34;;;;;;;9.93;6.70;;;15.30;99.90;;;;;;4975667;28;20053;-85
2022/08/30 02:36:59;;;;;;;10.38;6.65;;;15.30;99.90;;;;;;4975156;28;20062;-85
2022/08/30 02:39:25;;;;;;;8.90;6.43;;;15.30;99.90;;;;;;4975776;28;20041;-85
2022/08/30 02:41:51;;;;;;;9.02;6.90;;;15.20;99.90;;;;;;4991209;28;20130;-85
2022/08/30 02:44:16;;;;;;;9.00;6.30;;;15.20;99.90;;;;;;4991913;28;20122;-85
2022/08/30 02:46:42;;;;;;;9.48;6.95;;;15.20;99.90;;;;;;4975723;28;20053;-85
2022/08/30 02:49:08;;;;;;;10.23;6.90;;;15.10;99.90;;;;;;4975340;28;20419;-84
2022/08/30 02:51:34;;;;;;;10.35;6.47;;;15.10;99.90;;;;;;5008093;28;20177;-85
2022/08/30 02:53:59;;;;;;;10.77;6.35;;;15.10;99.90;;;;;;4990491;28;20399;-85
2022/08/30 02:56:27;;;;;;;10.10;7.18;;;15.10;99.90;;;;;;4992806;28;20154;-85
2022/08/30 02:58:53;;;;;;;11.43;7.28;;;15.00;99.90;;;;;;5006777;28;20403;-85
2022/08/30 03:01:19;;;;;;;9.30;6.65;;;15.00;99.90;;;;;;4991607;28;20491;-85
2022/08/30 03:03:45;;;;;;;10.82;7.38;;;14.90;99.90;;;;;;4974764;28;20053;-84
2022/08/30 03:06:12;;;;;;;9.48;6.80;;;14.90;99.90;;;;;;5007591;28;20057;-84
2022/08/30 03:08:37;;;;;;;10.05;6.90;;;14.90;99.90;;;;;;4992319;28;20038;-84
2022/08/30 03:11:03;;;;;;;9.07;6.30;;;14.80;99.90;;;;;;5007092;28;20321;-84
2022/08/30 03:13:29;;;;;;;9.27;6.60;;;14.80;99.90;;;;;;5007838;28;20046;-84
2022/08/30 03:15:55;;;;;;;9.02;6.78;;;14.80;99.90;;;;;;4990577;28;20058;-84
2022/08/30 03:18:22;;;;;;;10.63;7.03;;;14.70;99.90;;;;;;4991380;28;20539;-85
2022/08/30 03:20:48;;;;;;;9.80;6.97;;;14.60;99.90;;;;;;5007283;28;20046;-85
2022/08/30 03:23:14;;;;;;;12.05;7.43;;;14.60;99.90;;;;;;5006816;28;20097;-86
2022/08/30 03:25:39;;;;;;;10.75;7.68;;;14.50;99.90;;;;;;4992537;28;20061;-85
2022/08/30 03:28:06;;;;;;;10.00;7.43;;;14.40;99.90;;;;;;4973874;28;20046;-85
2022/08/30 03:30:32;;;;;;;10.90;7.97;;;14.40;99.90;;;;;;4991301;28;20050;-85
2022/08/30 03:32:58;;;;;;;11.57;8.15;;;14.30;99.90;;;;;;4990128;28;20407;-85
2022/08/30 03:35:24;;;;;;;10.98;8.05;;;14.30;99.90;;;;;;4991059;28;20302;-86
2022/08/30 03:37:49;;;;;;;10.10;8.10;;;14.30;99.90;;;;;;5005720;28;20473;-85
2022/08/30 03:40:17;;;;;;;10.50;8.30;;;14.20;99.90;;;;;;5007189;28;20070;-84
2022/08/30 03:42:44;;;;;;;12.50;8.07;;;14.20;99.90;;;;;;5007070;28;20415;-85
2022/08/30 03:45:11;;;;;;;10.45;8.25;;;14.20;99.90;;;;;;5007161;28;20487;-85
2022/08/30 03:47:37;;;;;;;9.90;7.90;;;14.10;99.90;;;;;;4991019;28;20061;-85
2022/08/30 03:50:04;;;;;;;11.68;8.55;;;14.10;99.90;;;;;;5005521;28;20498;-85
2022/08/30 03:52:30;;;;;;;10.82;8.40;;;14.00;99.90;;;;;;5007076;28;20053;-85
2022/08/30 03:54:56;;;;;;;10.40;8.10;;;14.10;99.90;;;;;;5005959;28;20042;-86
2022/08/30 03:57:21;;;;;;;9.77;7.65;;;13.90;99.90;;;;;;4990376;28;20054;-84
2022/08/30 03:59:47;;;;;;;11.25;8.40;;;13.90;99.90;;;;;;4990229;28;20046;-85
2022/08/30 04:02:12;;;;;;;10.27;7.80;;;13.90;99.90;;;;;;4974150;28;20050;-85
2022/08/30 04:04:38;;;;;;;10.50;8.25;;;13.90;99.90;;;;;;5006200;28;20039;-85
2022/08/30 04:07:04;;;;;;;10.52;7.90;;;13.90;99.90;;;;;;5005833;28;20505;-84
2022/08/30 04:09:30;;;;;;;10.95;8.15;;;13.80;99.90;;;;;;4990413;28;20039;-84
2022/08/30 04:11:55;;;;;;;11.23;8.68;;;13.90;99.90;;;;;;4990611;28;20054;-85
2022/08/30 04:14:22;;;;;;;9.75;8.35;;;13.80;99.90;;;;;;4990656;28;20438;-85
2022/08/30 04:16:48;;;;;;;10.45;8.90;;;13.70;99.90;;;;;;5005741;28;20081;-85
2022/08/30 04:19:13;;;;;;;10.63;8.30;;;13.70;99.90;;;;;;5006022;28;20050;-85
2022/08/30 04:21:39;;;;;;;11.10;8.13;;;13.70;99.90;;;;;;5006578;28;20050;-86
2022/08/30 04:24:05;;;;;;;10.43;8.20;;;13.60;99.90;;;;;;4990474;28;20042;-87
2022/08/30 04:26:30;;;;;;;10.63;8.15;;;13.50;99.90;;;;;;5006408;28;20149;-85
2022/08/30 04:28:57;;;;;;;10.93;8.93;;;13.50;99.90;;;;;;4989362;28;20399;-86
2022/08/30 04:31:22;;;;;;;11.18;9.38;;;13.50;99.90;;;;;;4991142;28;20060;-86
2022/08/30 04:33:49;;;;;;;11.20;9.43;;;13.50;99.90;;;;;;5005283;28;20491;-86
2022/08/30 04:36:15;;;;;;;12.82;9.48;;;13.40;99.90;;;;;;4973572;28;20042;-86
2022/08/30 04:38:41;;;;;;;12.95;10.68;;;13.40;99.90;;;;;;4989901;28;20545;-85
2022/08/30 04:41:15;;;;;;;12.18;9.45;;;13.40;99.90;;;;;;4990022;28;20129;-86
2022/08/30 04:43:41;;;;;;;13.40;10.73;;;13.40;99.90;;;;;;5006103;28;20135;-86
2022/08/30 04:46:07;;;;;;;13.82;10.52;;;13.30;99.90;;;;;;4972169;28;20046;-85
2022/08/30 04:48:34;;;;;;;13.63;10.98;;;13.40;99.90;;;;;;4990484;28;20053;-85
2022/08/30 04:51:03;;;;;;;12.43;10.65;;;13.40;99.90;;;;;;4988614;28;20499;-85
2022/08/30 04:53:29;;;;;;;14.27;10.60;;;13.40;99.90;;;;;;4973329;28;20042;-85
2022/08/30 04:55:54;;;;;;;12.77;11.43;;;13.40;99.90;;;;;;4989938;28;20045;-86
2022/08/30 04:58:20;;;;;;;14.10;10.50;;;13.50;99.90;;;;;;4990798;28;20082;-86
2022/08/30 05:00:46;;;;;;;13.60;11.50;;;13.40;99.90;;;;;;5004978;28;20050;-85
2022/08/30 05:03:12;;;;;;;13.55;11.25;;;13.50;99.90;;;;;;4990017;28;20092;-85
2022/08/30 05:05:38;;;;;;;12.70;10.98;;;13.40;99.90;;;;;;4973194;28;20046;-85
2022/08/30 05:08:05;;;;;;;12.52;11.13;;;13.40;99.90;;;;;;4989597;28;20049;-85
2022/08/30 05:10:30;;;;;;;12.95;10.27;;;13.50;99.90;;;;;;4990825;28;20054;-84
2022/08/30 05:12:56;;;;;;;13.13;11.25;;;13.40;99.90;;;;;;5004830;28;20406;-85
2022/08/30 05:15:22;;;;;;;13.80;11.00;;;13.40;99.90;;;;;;4990617;28;20089;-85
2022/08/30 05:17:48;;;;;;;14.65;11.32;;;13.40;99.90;;;;;;4989260;28;20038;-85
2022/08/30 05:20:14;;;;;;;12.40;11.02;;;13.40;99.90;;;;;;4988860;28;20339;-86
2022/08/30 05:22:48;;;;;;;13.38;11.98;;;13.50;99.90;;;;;;4972879;28;20144;-85
2022/08/30 05:25:15;;;;;;;13.93;11.40;;;13.50;99.90;;;;;;4990178;28;20049;-85
2022/08/30 05:27:41;;;;;;;14.23;12.45;;;13.60;99.90;;;;;;4990464;28;20061;-85
2022/08/30 05:30:07;;;;;;;13.52;11.82;;;13.60;99.90;;;;;;4988032;28;20046;-84
2022/08/30 05:32:33;;;;;;;12.80;11.43;;;13.70;99.90;;;;;;5004997;28;20138;-84
2022/08/30 05:34:58;;;;;;;14.30;11.55;;;13.70;99.90;;;;;;5004202;28;20133;-85
2022/08/30 05:37:24;;;;;;;13.10;10.98;;;13.80;99.90;;;;;;5004958;28;20133;-84
2022/08/30 05:39:49;;;;;;;13.20;10.95;;;13.80;99.90;;;;;;5004508;28;20042;-86
2022/08/30 05:42:15;;;;;;;12.57;11.18;;;13.90;99.90;;;;;;4990240;28;20426;-85
2022/08/30 05:44:40;;;;;;;12.13;10.82;;;13.90;99.90;;;;;;5005575;28;20077;-84
2022/08/30 05:47:06;;;;;;;14.00;11.73;;;14.00;99.90;;;;;;4987601;28;20045;-84
2022/08/30 05:49:32;;;;;;;12.18;10.52;;;14.20;99.90;;;;;;4991459;28;20035;-83
2022/08/30 05:51:57;;;;;;;12.32;10.55;;;14.10;99.90;;;;;;4988599;28;20112;-85
2022/08/30 05:54:23;;;;;;;13.88;10.18;;;14.10;99.90;;;;;;4973068;28;20050;-84
2022/08/30 05:56:48;;;;;;;12.20;10.75;;;14.20;99.90;;;;;;4971899;28;20085;-86
2022/08/30 05:59:14;;;;;;;11.98;10.18;;;14.30;99.90;;;;;;4993758;28;20104;-85
2022/08/30 06:01:43;;;;;;;13.00;9.88;;;14.40;99.90;;;;;;5008778;28;20054;-84
2022/08/30 06:04:11;;;;;;;12.00;10.70;;;14.40;99.90;;;;;;4976058;28;20046;-84
2022/08/30 06:06:39;;;;;;;12.75;9.90;;;14.50;99.90;;;;;;5009214;28;20458;-85
2022/08/30 06:09:06;;;;;;;10.93;8.98;;;14.50;99.90;;;;;;5008265;28;20050;-85
2022/08/30 06:11:32;;;;;;;13.10;10.15;;;14.60;99.90;;;;;;4994139;28;20082;-84
2022/08/30 06:13:57;;;;;;;12.15;8.95;;;14.70;99.90;;;;;;4991915;28;20053;-85
2022/08/30 06:16:26;;;;;;;13.07;9.18;;;14.80;99.90;;;;;;5008284;28;20050;-86
2022/08/30 06:18:53;;;;;;;11.55;8.77;;;14.90;99.90;;;;;;4975427;28;20069;-85
2022/08/30 06:21:22;;;;;;;10.98;8.55;;;15.00;99.90;;;;;;4992783;28;20046;-84
2022/08/30 06:23:48;;;;;;;10.30;8.50;;;15.10;99.90;;;;;;4975504;28;20396;-84
2022/08/30 06:26:14;;;;;;;10.55;7.88;;;15.20;99.90;;;;;;5008604;28;20042;-84
2022/08/30 06:28:40;;;;;;;12.30;8.50;;;15.20;99.90;;;;;;5008735;28;20090;-85
2022/08/30 06:31:07;;;;;;;9.80;8.00;;;15.30;99.90;;;;;;4992553;28;20082;-86
2022/08/30 06:33:33;;;;;;;10.93;7.85;;;15.40;99.90;;;;;;5009135;28;20514;-84
2022/08/30 06:36:04;;;;;;;10.55;6.80;;;15.60;99.90;;;;;;4993423;28;20399;-84
2022/08/30 06:38:30;;;;;;;11.05;7.38;;;15.60;99.90;;;;;;4993713;28;20096;-86
2022/08/30 06:40:55;;;;;;;9.77;6.47;;;15.70;99.90;;;;;;4992537;28;20380;-84
2022/08/30 06:43:21;;;;;;;7.97;5.00;;;15.80;99.90;;;;;;5008386;28;20042;-85
2022/08/30 06:45:47;;;;;;;8.63;5.30;;;15.90;99.90;;;;;;5007080;28;20096;-84
2022/08/30 06:48:12;;;;;;;9.05;5.50;;;16.00;99.90;;;;;;5007829;28;20467;-85
2022/08/30 06:50:40;;;;;;;8.90;4.47;;;16.10;99.90;;;;;;4993346;28;20407;-85
2022/08/30 06:53:07;;;;;;;7.43;4.50;;;16.20;99.90;;;;;;4992067;28;20054;-86
2022/08/30 06:55:32;;;;;;;6.70;4.00;;;16.30;99.90;;;;;;5007950;28;20468;-84
2022/08/30 06:57:59;;;;;;;8.10;3.85;;;16.40;99.90;;;;;;5006985;28;20066;-84
2022/08/30 07:00:26;;;;;;;8.25;3.97;;;16.40;99.90;;;;;;5007589;28;20054;-84
2022/08/30 07:02:52;;;;;;;7.78;3.65;;;16.50;99.90;;;;;;5007042;28;20042;-85
2022/08/30 07:05:20;;;;;;;6.60;3.45;;;16.60;99.90;;;;;;4975420;28;20093;-86
2022/08/30 07:07:46;;;;;;;7.25;3.30;;;16.60;99.90;;;;;;5007389;28;20046;-86
2022/08/30 07:10:13;;;;;;;7.22;3.38;;;16.60;99.90;;;;;;5007571;28;20395;-86
2022/08/30 07:12:39;;;;;;;6.70;3.35;;;16.70;99.90;;;;;;4975387;28;20137;-86
2022/08/30 07:15:06;;;;;;;8.32;3.50;;;16.70;99.90;;;;;;4991394;28;20467;-85
2022/08/30 07:20:18;;;;;;;7.20;3.17;;;16.90;99.90;;;;;;4992627;28;20054;-85
2022/08/30 07:22:45;;;;;;;7.35;2.97;;;16.90;99.90;;;;;;4992376;28;20046;-84
2022/08/30 07:25:12;;;;;;;6.07;2.70;;;17.00;99.90;;;;;;4974831;28;20435;-85
2022/08/30 07:27:37;;;;;;;6.57;3.00;;;17.00;99.90;;;;;;4974567;28;20170;-84
2022/08/30 07:30:05;;;;;;;6.82;2.70;;;17.10;99.90;;;;;;4990493;28;20062;-86
2022/08/30 07:32:30;;;;;;;9.50;3.38;;;17.20;99.90;;;;;;4991143;28;20077;-85
2022/08/30 07:34:56;;;;;;;5.82;2.42;;;17.30;99.90;;;;;;5006675;28;20104;-86
2022/08/30 07:37:22;;;;;;;7.50;2.60;;;17.30;99.90;;;;;;5007043;28;20038;-85
2022/08/30 07:39:47;;;;;;;8.10;2.70;;;17.40;99.90;;;;;;5006666;28;20487;-87
2022/08/30 07:42:13;;;;;;;6.78;2.60;;;17.40;99.90;;;;;;4991487;28;20073;-84
2022/08/30 07:44:38;;;;;;;5.43;2.60;;;17.50;99.90;;;;;;5007344;28;20046;-86
2022/08/30 07:47:04;;;;;;;5.72;2.50;;;17.60;99.90;;;;;;5006464;28;20046;-86
2022/08/30 07:49:30;;;;;;;6.50;2.17;;;17.70;99.90;;;;;;5007729;28;20054;-85
2022/08/30 07:51:56;;;;;;;5.35;2.28;;;17.80;99.90;;;;;;4991252;28;20061;-86
2022/08/30 07:54:21;;;;;;;4.47;1.80;;;17.80;99.90;;;;;;4974498;28;20050;-87
2022/08/30 07:56:47;;;;;;;6.07;2.00;;;17.90;99.90;;;;;;5005662;28;20053;-87
2022/08/30 07:59:13;;;;;;;5.40;2.10;;;17.90;99.90;;;;;;4991929;28;20046;-86
2022/08/30 08:01:39;;;;;;;6.78;2.22;;;18.00;99.90;;;;;;4992208;28;20042;-85
2022/08/30 08:04:04;;;;;;;4.32;1.80;;;18.00;99.90;;;;;;4973472;28;20128;-85
2022/08/30 08:06:30;;;;;;;6.13;2.17;;;18.10;99.90;;;;;;5007007;28;20050;-85
2022/08/30 08:09:00;;;;;;;8.57;2.08;;;18.10;99.90;;;;;;4990947;28;20403;-85
2022/08/30 08:11:27;;;;;;;4.63;1.70;;;18.20;99.90;;;;;;4991186;28;20113;-84
2022/08/30 08:13:53;;;;;;;6.10;2.08;;;18.20;99.90;;;;;;5005780;28;20138;-85
2022/08/30 08:16:20;;;;;;;5.05;1.83;;;18.30;99.90;;;;;;4991802;28;20096;-85
2022/08/30 08:18:46;;;;;;;5.55;1.85;;;18.30;99.90;;;;;;4991090;28;20042;-86
2022/08/30 08:21:12;;;;;;;5.90;2.15;;;18.30;99.90;;;;;;4990544;28;20061;-85
2022/08/30 08:23:37;;;;;;;6.32;1.70;;;18.40;99.90;;;;;;4991669;28;20053;-89
2022/08/30 08:26:04;;;;;;;5.35;1.90;;;18.40;99.90;;;;;;5005328;28;20495;-87
2022/08/30 08:28:30;;;;;;;4.55;1.70;;;18.50;99.90;;;;;;4991467;28;20125;-87
2022/08/30 08:30:55;;;;;;;7.53;2.13;;;18.70;99.90;;;;;;4973099;28;20495;-85
2022/08/30 08:33:21;;;;;;;6.50;2.05;;;18.60;99.90;;;;;;4974055;28;20046;-87
2022/08/30 08:35:47;;;;;;;3.50;1.70;;;18.70;99.90;;;;;;5006021;28;20058;-84
2022/08/30 08:38:13;;;;;;;4.00;1.83;;;18.70;99.90;;;;;;4990874;28;20093;-85
2022/08/30 08:41:26;;;;;;;5.68;2.20;;;18.60;99.90;;;;;;4990526;28;20042;-86
2022/08/30 08:43:52;;;;;;;3.70;1.70;;;18.60;99.90;;;;;;4936437;28;20130;-88
2022/08/30 08:46:32;;;;;;;5.22;1.75;;;18.70;99.90;;;;;;4953296;28;20142;-86
2022/08/30 08:49:03;;;;;;;6.85;1.75;;;18.80;99.90;;;;;;4968452;28;20431;-86
2022/08/30 08:54:51;;;;;;;5.35;2.22;;;18.80;99.90;;;;;;4953358;28;20415;-85
2022/08/30 08:57:16;;;;;;;4.95;1.95;;;18.80;99.90;;;;;;4969045;28;20494;-87
2022/08/30 08:59:43;;;;;;;5.03;1.75;;;18.90;99.90;;;;;;4952915;28;20058;-84
2022/08/30 09:02:43;;;;;;;4.70;2.05;;;18.90;99.90;;;;;;4952264;28;20487;-85
2022/08/30 09:05:13;;;;;;;4.70;1.88;;;19.00;99.90;;;;;;4968321;28;20099;-86
2022/08/30 09:07:47;;;;;;;5.25;1.88;;;19.00;99.90;;;;;;4952849;28;20055;-86
2022/08/30 09:10:13;;;;;;;4.45;1.92;;;19.10;99.90;;;;;;4968035;28;20082;-85
2022/08/30 09:12:39;;;;;;;4.32;1.90;;;19.10;99.90;;;;;;4968954;28;20105;-85
2022/08/30 09:15:08;;;;;;;6.47;1.90;;;19.10;99.90;;;;;;4968028;28;20062;-89
2022/08/30 09:17:48;;;;;;;4.35;1.63;;;19.10;99.90;;;;;;4968397;28;20149;-87
2022/08/30 09:20:24;;;;;;;4.45;1.60;;;19.10;99.90;;;;;;4989065;28;20052;-85
2022/08/30 09:22:50;;;;;;;5.38;1.60;;;19.20;99.90;;;;;;4989810;28;20066;-86
2022/08/30 09:25:26;;;;;;;5.32;1.70;;;19.20;99.90;;;;;;5004984;28;20104;-87
2022/08/30 09:27:54;;;;;;;4.43;1.60;;;19.20;99.90;;;;;;4989422;28;20517;-90
2022/08/30 09:30:26;;;;;;;5.32;1.60;;;19.20;99.90;;;;;;4990482;28;20046;-86
2022/08/30 09:32:53;;;;;;;5.00;1.70;;;19.20;99.90;;;;;;4972396;28;20515;-85
2022/08/30 09:35:45;;;;;;;5.07;2.05;;;19.30;99.90;;;;;;5005499;28;20384;-85
2022/08/30 09:38:17;;;;;;;4.45;1.52;;;19.30;99.90;;;;;;4986465;28;20065;-85
2022/08/30 09:40:48;;;;;;;5.63;1.52;;;19.40;99.90;;;;;;4989013;28;20372;-85
2022/08/30 09:43:17;;;;;;;6.32;1.63;;;19.40;99.90;;;;;;5004881;28;20502;-88
2022/08/30 09:45:46;;;;;;;3.78;1.55;;;19.40;99.90;;;;;;4988918;28;20058;-86
2022/08/30 09:48:33;;;;;;;5.18;1.50;;;19.50;99.90;;;;;;5004915;28;20038;-84
2022/08/30 09:51:13;;;;;;;5.25;1.70;;;19.60;99.90;;;;;;5004573;28;20050;-86
2022/08/30 09:53:57;;;;;;;6.50;1.77;;;19.70;99.90;;;;;;5004881;28;20078;-87
2022/08/30 09:56:49;;;;;;;4.30;1.65;;;19.70;99.90;;;;;;4990195;28;20050;-87
2022/08/30 09:59:47;;;;;;;5.13;1.65;;;19.80;99.90;;;;;;5004778;28;20510;-87
2022/08/30 10:02:34;;;;;;;5.75;1.90;;;19.80;99.90;;;;;;5004221;28;20094;-83
2022/08/30 10:05:20;;;;;;;4.32;1.80;;;19.80;99.90;;;;;;4971088;28;20082;-85
2022/08/30 10:08:11;;;;;;;3.65;1.60;;;19.80;99.90;;;;;;5003182;28;20046;-89
2022/08/30 10:10:48;;;;;;;3.78;1.60;;;19.90;99.90;;;;;;4971713;28;20086;-89
2022/08/30 10:13:55;;;;;;;3.70;1.70;;;19.90;99.90;;;;;;4987760;28;20049;-89
2022/08/30 10:16:34;;;;;;;3.75;1.33;;;19.90;99.90;;;;;;4976705;28;20514;-86
2022/08/30 10:19:22;;;;;;;3.95;1.40;;;19.90;99.90;;;;;;4988149;28;20050;-86
2022/08/30 10:22:00;;;;;;;7.32;1.58;;;19.90;99.90;;;;;;4988296;28;20050;-84
2022/08/30 10:24:39;;;;;;;3.67;1.40;;;20.00;99.90;;;;;;5004234;28;20034;-88
2022/08/30 10:27:20;;;;;;;4.18;1.50;;;20.00;99.90;;;;;;4988522;28;20073;-85
2022/08/30 10:29:52;;;;;;;;;;;20.00;99.90;;;;;;5004160;28;20054;-86
2022/08/30 10:32:31;;;;;;;5.07;1.50;;;20.00;99.90;;;;;;4987462;28;19921;-84
2022/08/30 10:35:06;;;;;;;5.95;1.55;;;20.00;99.90;;;;;;4987886;28;20049;-87
2022/08/30 10:37:38;;;;;;;3.80;1.27;;;20.00;99.90;;;;;;4970718;28;20101;-85
2022/08/30 10:43:39;;;;;;;6.45;1.60;;;20.10;99.90;;;;;;4987423;28;20090;-88
2022/08/30 10:46:28;;;;;;;5.00;1.75;;;20.10;99.90;;;;;;4973766;28;20057;-87
2022/08/30 10:48:54;;;;;;;7.40;1.73;;;20.10;99.90;;;;;;5007746;28;20042;-86
2022/08/30 10:51:45;;;;;;;6.60;1.60;;;20.10;99.90;;;;;;5007099;28;20042;-85
2022/08/30 10:54:34;;;;;;;3.92;1.48;;;20.20;99.90;;;;;;5006977;28;20113;-86
2022/08/30 10:57:00;;;;;;;3.03;1.30;;;20.20;99.90;;;;;;4952556;28;1060455;-85
2022/08/30 10:59:27;;;;;;;6.95;1.75;;;20.30;99.90;;;;;;4993147;28;20172;-85
2022/08/30 11:02:25;;;;;;;3.70;1.40;;;20.30;99.90;;;;;;5007110;28;20120;-86
2022/08/30 11:05:12;;;;;;;4.25;1.58;;;20.30;99.90;;;;;;4974535;28;20039;-86
2022/08/30 11:08:02;;;;;;;4.55;1.42;;;20.30;99.90;;;;;;5008035;28;20070;-89
2022/08/30 11:10:48;;;;;;;4.65;1.50;;;20.40;99.90;;;;;;5008136;28;20054;-85
2022/08/30 11:13:22;;;;;;;6.30;1.55;;;20.40;99.90;;;;;;4991508;28;20117;-86
2022/08/30 11:15:52;;;;;;;3.33;1.38;;;20.40;99.90;;;;;;4992279;28;20431;-87
2022/08/30 11:18:19;;;;;;;5.30;1.47;;;20.40;99.90;;;;;;4975782;28;20388;-85
2022/08/30 11:20:49;;;;;;;5.68;1.60;;;20.50;99.90;;;;;;4974849;28;20315;-87
2022/08/30 11:23:17;;;;;;;3.53;1.50;;;20.50;99.90;;;;;;4992606;28;20042;-87
2022/08/30 11:26:00;;;;;;;4.50;1.85;;;20.50;99.90;;;;;;4992655;28;20125;-88
2022/08/30 11:28:35;;;;;;;3.83;1.50;;;20.50;99.90;;;;;;4993014;28;20052;-87
2022/08/30 11:31:07;;;;;;;4.13;1.60;;;20.60;99.90;;;;;;4974291;28;20046;-88
2022/08/30 11:33:54;;;;;;;5.47;1.33;;;20.60;99.90;;;;;;4975007;28;20042;-87
2022/08/30 11:36:29;;;;;;;4.43;1.52;;;20.60;99.90;;;;;;5008152;28;20391;-86
2022/08/30 11:38:54;;;;;;;4.38;1.40;;;20.60;99.90;;;;;;4991562;28;20042;-85
2022/08/30 11:41:39;;;;;;;3.90;1.60;;;20.60;99.90;;;;;;4992532;28;20041;-85
2022/08/30 11:44:20;;;;;;;4.85;1.40;;;20.60;99.90;;;;;;4990548;28;20177;-87
2022/08/30 11:46:48;;;;;;;;;;;20.50;99.90;;;;;;4977413;28;20384;-84
2022/08/30 11:49:49;;;;;;;4.88;1.50;;;20.50;99.90;;;;;;4995121;28;19928;-88
2022/08/30 11:52:44;;;;;;;3.67;1.50;;;20.50;99.90;;;;;;4965438;28;20062;-86
2022/08/30 11:55:30;;;;;;;3.67;1.30;;;20.60;99.90;;;;;;4944523;28;20419;-87
2022/08/30 11:58:16;;;;;;;4.32;1.60;;;20.60;99.90;;;;;;4969646;28;20058;-86
2022/08/30 12:00:46;;;;;;;9.38;1.60;;;20.70;99.90;;;;;;4938151;28;20051;-86
2022/08/30 12:03:14;;;;;;;3.10;1.30;;;20.70;99.90;;;;;;4937626;28;20452;-86
2022/08/30 12:05:41;;;;;;;5.47;1.60;;;20.80;99.90;;;;;;4937902;28;20081;-86
2022/08/30 12:08:33;;;;;;;3.47;1.30;;;20.80;99.90;;;;;;4937058;28;20094;-86
2022/08/30 12:11:00;;;;;;;2.95;1.23;;;20.80;99.90;;;;;;4968902;28;20126;-86
2022/08/30 12:13:37;;;;;;;2.78;1.30;;;20.80;99.90;;;;;;4953807;28;20061;-86
2022/08/30 12:16:07;;;;;;;3.42;1.40;;;20.90;99.90;;;;;;4952970;28;20074;-86
2022/08/30 12:18:52;;;;;;;5.18;1.55;;;20.90;99.90;;;;;;4969556;28;20058;-86
2022/08/30 12:21:20;;;;;;;3.47;1.10;;;21.00;99.90;;;;;;4969884;28;20050;-86
2022/08/30 12:24:12;;;;;;;3.20;1.33;;;20.90;99.90;;;;;;4953318;28;20046;-90
2022/08/30 12:26:43;;;;;;;3.72;1.30;;;20.90;99.90;;;;;;4977306;28;20057;-84
2022/08/30 12:29:28;;;;;;;3.35;1.20;;;21.00;99.90;;;;;;5006114;28;20482;-84
2022/08/30 12:32:06;;;;;;;5.15;1.45;;;21.00;99.90;;;;;;5005808;28;20398;-87
2022/08/30 12:34:40;;;;;;;4.40;1.25;;;21.00;99.90;;;;;;4974022;28;20053;-85
2022/08/30 12:37:18;;;;;;;4.53;1.30;;;21.10;99.90;;;;;;4990342;28;20054;-85
2022/08/30 12:39:44;;;;;;;4.00;1.20;;;21.20;99.90;;;;;;4990966;28;20050;-86
2022/08/30 12:42:25;;;;;;;3.28;1.52;;;21.30;99.90;;;;;;5006357;28;20050;-88
2022/08/30 12:44:53;;;;;;;2.78;1.30;;;21.30;99.90;;;;;;5005715;28;20442;-87
2022/08/30 12:47:36;;;;;;;3.88;1.38;;;21.40;99.90;;;;;;4989501;28;20078;-86
2022/08/30 12:50:04;;;;;;;2.20;1.20;;;21.40;99.90;;;;;;4989025;28;20050;-85
2022/08/30 12:52:35;;;;;;;4.38;1.48;;;21.40;99.90;;;;;;5006445;28;20056;-86
2022/08/30 12:55:12;;;;;;;4.22;1.50;;;21.40;99.90;;;;;;5005783;28;20054;-89
2022/08/30 12:57:42;;;;;;;5.63;1.35;;;21.30;99.90;;;;;;4973536;28;20058;-87
2022/08/30 13:00:10;;;;;;;6.50;1.40;;;21.40;99.90;;;;;;4989133;28;20050;-85
2022/08/30 13:02:44;;;;;;;2.95;1.08;;;21.40;99.90;;;;;;4990606;28;20078;-87
2022/08/30 13:05:30;;;;;;;2.72;1.10;;;21.40;99.90;;;;;;4973273;28;20088;-86
2022/08/30 13:08:16;;;;;;;3.75;1.30;;;21.40;99.90;;;;;;4989676;28;20136;-87